sensor_id;sensor_type;location;lat;lon;timestamp;temperature;humidity
44695;DHT22;32845;59.422;17.930;2023-07-20T00:02:42;14.20;99.90
44695;DHT22;32845;59.422;17.930;2023-07-20T00:07:13;14.20;99.90
44695;DHT22;32845;59.422;17.930;2023-07-20T00:11:51;14.20;99.90
44695;DHT22;32845;59.422;17.930;2023-07-20T00:16:21;14.10;99.90
44695;DHT22;32845;59.422;17.930;2023-07-20T00:20:52;14.00;99.90
44695;DHT22;32845;59.422;17.930;2023-07-20T00:25:23;14.00;99.90
44695;DHT22;32845;59.422;17.930;2023-07-20T00:29:54;14.00;99.90
44695;DHT22;32845;59.422;17.930;2023-07-20T00:34:24;13.90;99.90
44695;DHT22;32845;59.422;17.930;2023-07-20T00:38:55;13.90;99.90
44695;DHT22;32845;59.422;17.930;2023-07-20T00:43:26;13.90;99.90
44695;DHT22;32845;59.422;17.930;2023-07-20T00:47:57;13.80;99.90
44695;DHT22;32845;59.422;17.930;2023-07-20T00:52:28;13.80;99.90
44695;DHT22;32845;59.422;17.930;2023-07-20T00:56:59;13.70;99.90
44695;DHT22;32845;59.422;17.930;2023-07-20T01:01:31;13.70;99.90
44695;DHT22;32845;59.422;17.930;2023-07-20T01:11:02;13.70;99.90
44695;DHT22;32845;59.422;17.930;2023-07-20T01:15:36;13.70;99.90
44695;DHT22;32845;59.422;17.930;2023-07-20T01:20:12;13.70;99.90
44695;DHT22;32845;59.422;17.930;2023-07-20T01:25:11;13.70;99.90
44695;DHT22;32845;59.422;17.930;2023-07-20T01:34:54;13.70;99.90
44695;DHT22;32845;59.422;17.930;2023-07-20T01:39:27;13.70;99.90
44695;DHT22;32845;59.422;17.930;2023-07-20T01:43:58;13.70;99.90
44695;DHT22;32845;59.422;17.930;2023-07-20T01:48:29;13.70;99.90
44695;DHT22;32845;59.422;17.930;2023-07-20T01:53:01;13.70;99.90
44695;DHT22;32845;59.422;17.930;2023-07-20T01:57:32;13.70;99.90
44695;DHT22;32845;59.422;17.930;2023-07-20T02:02:02;13.70;99.90
44695;DHT22;32845;59.422;17.930;2023-07-20T02:06:33;13.70;99.90
44695;DHT22;32845;59.422;17.930;2023-07-20T02:11:03;13.70;99.90
44695;DHT22;32845;59.422;17.930;2023-07-20T02:15:35;13.70;99.90
44695;DHT22;32845;59.422;17.930;2023-07-20T02:20:06;13.60;99.90
44695;DHT22;32845;59.422;17.930;2023-07-20T02:24:39;13.60;99.90
44695;DHT22;32845;59.422;17.930;2023-07-20T02:29:10;13.50;99.90
44695;DHT22;32845;59.422;17.930;2023-07-20T02:33:42;13.50;99.90
44695;DHT22;32845;59.422;17.930;2023-07-20T02:38:12;13.40;99.90
44695;DHT22;32845;59.422;17.930;2023-07-20T02:42:43;13.40;99.90
44695;DHT22;32845;59.422;17.930;2023-07-20T02:47:13;13.30;99.90
44695;DHT22;32845;59.422;17.930;2023-07-20T02:51:44;13.30;99.90
44695;DHT22;32845;59.422;17.930;2023-07-20T02:56:15;13.30;99.90
44695;DHT22;32845;59.422;17.930;2023-07-20T03:00:45;13.20;99.90
44695;DHT22;32845;59.422;17.930;2023-07-20T03:05:16;13.20;99.90
44695;DHT22;32845;59.422;17.930;2023-07-20T03:09:47;13.20;99.90
44695;DHT22;32845;59.422;17.930;2023-07-20T03:14:18;13.20;99.90
44695;DHT22;32845;59.422;17.930;2023-07-20T03:18:48;13.20;99.90
44695;DHT22;32845;59.422;17.930;2023-07-20T03:23:19;13.30;99.90
44695;DHT22;32845;59.422;17.930;2023-07-20T03:27:49;13.20;99.90
44695;DHT22;32845;59.422;17.930;2023-07-20T03:32:20;13.30;99.90
44695;DHT22;32845;59.422;17.930;2023-07-20T03:36:51;13.30;99.90
44695;DHT22;32845;59.422;17.930;2023-07-20T03:41:21;13.30;99.90
44695;DHT22;32845;59.422;17.930;2023-07-20T03:45:53;13.40;99.90
44695;DHT22;32845;59.422;17.930;2023-07-20T03:50:23;13.40;99.90
44695;DHT22;32845;59.422;17.930;2023-07-20T03:54:54;13.40;99.90
44695;DHT22;32845;59.422;17.930;2023-07-20T03:59:25;13.50;99.90
44695;DHT22;32845;59.422;17.930;2023-07-20T04:03:55;13.50;99.90
44695;DHT22;32845;59.422;17.930;2023-07-20T04:08:26;13.60;99.90
44695;DHT22;32845;59.422;17.930;2023-07-20T04:12:57;13.60;99.90
44695;DHT22;32845;59.422;17.930;2023-07-20T04:17:27;13.70;99.90
44695;DHT22;32845;59.422;17.930;2023-07-20T04:21:58;13.70;99.90
44695;DHT22;32845;59.422;17.930;2023-07-20T04:26:29;13.80;99.90
44695;DHT22;32845;59.422;17.930;2023-07-20T04:31:12;13.90;99.90
44695;DHT22;32845;59.422;17.930;2023-07-20T04:35:53;13.90;99.90
44695;DHT22;32845;59.422;17.930;2023-07-20T04:40:24;14.00;99.90
44695;DHT22;32845;59.422;17.930;2023-07-20T04:44:54;14.00;99.90
44695;DHT22;32845;59.422;17.930;2023-07-20T04:49:25;14.10;99.90
44695;DHT22;32845;59.422;17.930;2023-07-20T04:53:56;14.10;99.90
44695;DHT22;32845;59.422;17.930;2023-07-20T04:58:26;14.10;99.90
44695;DHT22;32845;59.422;17.930;2023-07-20T05:02:57;14.20;99.90
44695;DHT22;32845;59.422;17.930;2023-07-20T05:07:28;14.30;99.90
44695;DHT22;32845;59.422;17.930;2023-07-20T05:11:58;14.40;99.90
44695;DHT22;32845;59.422;17.930;2023-07-20T05:16:29;14.40;99.90
44695;DHT22;32845;59.422;17.930;2023-07-20T05:20:59;14.50;99.90
44695;DHT22;32845;59.422;17.930;2023-07-20T05:25:30;14.60;99.90
44695;DHT22;32845;59.422;17.930;2023-07-20T05:30:01;14.70;99.90
44695;DHT22;32845;59.422;17.930;2023-07-20T05:34:31;14.70;99.90
44695;DHT22;32845;59.422;17.930;2023-07-20T05:39:02;14.90;99.90
44695;DHT22;32845;59.422;17.930;2023-07-20T05:43:33;14.90;99.90
44695;DHT22;32845;59.422;17.930;2023-07-20T05:48:03;14.90;99.90
44695;DHT22;32845;59.422;17.930;2023-07-20T05:52:34;15.00;99.90
44695;DHT22;32845;59.422;17.930;2023-07-20T05:57:05;15.10;99.90
44695;DHT22;32845;59.422;17.930;2023-07-20T06:01:36;15.30;99.90
44695;DHT22;32845;59.422;17.930;2023-07-20T06:06:07;15.40;99.90
44695;DHT22;32845;59.422;17.930;2023-07-20T06:10:39;15.50;99.90
44695;DHT22;32845;59.422;17.930;2023-07-20T06:15:27;15.70;99.90
44695;DHT22;32845;59.422;17.930;2023-07-20T06:19:58;15.70;99.90
44695;DHT22;32845;59.422;17.930;2023-07-20T06:24:29;15.80;99.90
44695;DHT22;32845;59.422;17.930;2023-07-20T06:28:59;15.80;99.90
44695;DHT22;32845;59.422;17.930;2023-07-20T06:33:30;15.90;99.90
44695;DHT22;32845;59.422;17.930;2023-07-20T06:38:01;15.90;99.90
44695;DHT22;32845;59.422;17.930;2023-07-20T06:42:32;15.90;99.90
44695;DHT22;32845;59.422;17.930;2023-07-20T06:47:02;16.00;99.90
44695;DHT22;32845;59.422;17.930;2023-07-20T06:51:33;16.10;99.90
44695;DHT22;32845;59.422;17.930;2023-07-20T06:56:04;16.20;99.90
44695;DHT22;32845;59.422;17.930;2023-07-20T07:00:34;16.30;99.90
44695;DHT22;32845;59.422;17.930;2023-07-20T07:05:05;16.40;99.90
44695;DHT22;32845;59.422;17.930;2023-07-20T07:09:36;16.60;99.90
44695;DHT22;32845;59.422;17.930;2023-07-20T07:14:07;16.70;99.90
44695;DHT22;32845;59.422;17.930;2023-07-20T07:18:37;16.80;99.90
44695;DHT22;32845;59.422;17.930;2023-07-20T07:23:10;16.80;99.90
44695;DHT22;32845;59.422;17.930;2023-07-20T07:27:41;16.90;99.90
44695;DHT22;32845;59.422;17.930;2023-07-20T07:32:11;16.90;99.90
44695;DHT22;32845;59.422;17.930;2023-07-20T07:36:42;16.90;99.90
44695;DHT22;32845;59.422;17.930;2023-07-20T07:41:14;17.00;99.90
44695;DHT22;32845;59.422;17.930;2023-07-20T07:45:44;17.10;99.90
44695;DHT22;32845;59.422;17.930;2023-07-20T07:50:15;17.20;99.90
44695;DHT22;32845;59.422;17.930;2023-07-20T07:54:45;17.10;99.90
44695;DHT22;32845;59.422;17.930;2023-07-20T07:59:16;17.10;99.90
44695;DHT22;32845;59.422;17.930;2023-07-20T08:03:47;17.00;99.90
44695;DHT22;32845;59.422;17.930;2023-07-20T08:08:18;17.20;99.90
44695;DHT22;32845;59.422;17.930;2023-07-20T08:12:48;17.20;99.90
44695;DHT22;32845;59.422;17.930;2023-07-20T08:17:19;17.30;99.90
44695;DHT22;32845;59.422;17.930;2023-07-20T08:21:50;17.30;99.90
44695;DHT22;32845;59.422;17.930;2023-07-20T08:26:20;17.30;99.90
44695;DHT22;32845;59.422;17.930;2023-07-20T08:30:53;17.20;99.90
44695;DHT22;32845;59.422;17.930;2023-07-20T08:35:23;17.30;99.90
44695;DHT22;32845;59.422;17.930;2023-07-20T08:39:54;17.50;99.90
44695;DHT22;32845;59.422;17.930;2023-07-20T08:44:25;17.80;99.90
44695;DHT22;32845;59.422;17.930;2023-07-20T08:48:56;18.00;99.90
44695;DHT22;32845;59.422;17.930;2023-07-20T08:53:28;18.30;99.90
44695;DHT22;32845;59.422;17.930;2023-07-20T08:58:00;18.40;99.90
44695;DHT22;32845;59.422;17.930;2023-07-20T09:02:35;18.50;99.90
44695;DHT22;32845;59.422;17.930;2023-07-20T09:07:09;18.60;99.90
44695;DHT22;32845;59.422;17.930;2023-07-20T09:11:41;18.50;99.90
44695;DHT22;32845;59.422;17.930;2023-07-20T09:16:13;18.80;99.90
44695;DHT22;32845;59.422;17.930;2023-07-20T09:20:45;19.00;99.90
44695;DHT22;32845;59.422;17.930;2023-07-20T09:25:17;19.00;99.90
44695;DHT22;32845;59.422;17.930;2023-07-20T09:29:51;18.80;99.90
44695;DHT22;32845;59.422;17.930;2023-07-20T09:34:21;18.60;99.90
44695;DHT22;32845;59.422;17.930;2023-07-20T09:38:52;18.50;99.90
44695;DHT22;32845;59.422;17.930;2023-07-20T09:43:23;18.50;99.90
44695;DHT22;32845;59.422;17.930;2023-07-20T09:48:03;18.50;99.90
44695;DHT22;32845;59.422;17.930;2023-07-20T09:52:34;18.60;99.90
44695;DHT22;32845;59.422;17.930;2023-07-20T09:57:08;18.70;99.90
44695;DHT22;32845;59.422;17.930;2023-07-20T10:01:41;18.70;99.90
44695;DHT22;32845;59.422;17.930;2023-07-20T10:06:15;18.60;99.90
44695;DHT22;32845;59.422;17.930;2023-07-20T10:10:50;18.50;99.90
44695;DHT22;32845;59.422;17.930;2023-07-20T10:15:36;18.60;99.90
44695;DHT22;32845;59.422;17.930;2023-07-20T10:20:07;18.60;99.90
44695;DHT22;32845;59.422;17.930;2023-07-20T10:24:39;18.70;99.90
44695;DHT22;32845;59.422;17.930;2023-07-20T10:29:12;19.00;99.90
44695;DHT22;32845;59.422;17.930;2023-07-20T10:33:44;19.10;99.90
44695;DHT22;32845;59.422;17.930;2023-07-20T10:38:15;19.30;99.90
44695;DHT22;32845;59.422;17.930;2023-07-20T10:42:47;19.40;99.90
44695;DHT22;32845;59.422;17.930;2023-07-20T10:47:18;19.60;99.90
44695;DHT22;32845;59.422;17.930;2023-07-20T10:51:55;19.90;99.90
44695;DHT22;32845;59.422;17.930;2023-07-20T10:56:27;20.10;99.90
44695;DHT22;32845;59.422;17.930;2023-07-20T11:01:04;20.30;99.90
44695;DHT22;32845;59.422;17.930;2023-07-20T11:05:38;20.20;99.90
44695;DHT22;32845;59.422;17.930;2023-07-20T11:10:13;20.40;99.90
44695;DHT22;32845;59.422;17.930;2023-07-20T11:14:55;20.70;99.90
44695;DHT22;32845;59.422;17.930;2023-07-20T11:19:26;20.90;99.90
44695;DHT22;32845;59.422;17.930;2023-07-20T11:23:57;21.00;99.90
44695;DHT22;32845;59.422;17.930;2023-07-20T11:28:30;20.90;99.90
44695;DHT22;32845;59.422;17.930;2023-07-20T11:33:00;20.90;99.90
44695;DHT22;32845;59.422;17.930;2023-07-20T11:37:32;21.00;99.90
44695;DHT22;32845;59.422;17.930;2023-07-20T11:42:02;21.20;99.90
44695;DHT22;32845;59.422;17.930;2023-07-20T11:46:34;21.20;99.90
44695;DHT22;32845;59.422;17.930;2023-07-20T11:51:05;21.40;99.90
44695;DHT22;32845;59.422;17.930;2023-07-20T11:55:36;21.40;99.90
44695;DHT22;32845;59.422;17.930;2023-07-20T12:00:07;21.40;99.90
44695;DHT22;32845;59.422;17.930;2023-07-20T12:04:41;21.60;99.90
44695;DHT22;32845;59.422;17.930;2023-07-20T12:09:17;21.90;99.00
44695;DHT22;32845;59.422;17.930;2023-07-20T12:13:47;21.90;99.10
44695;DHT22;32845;59.422;17.930;2023-07-20T12:18:18;21.80;99.40
44695;DHT22;32845;59.422;17.930;2023-07-20T12:22:55;21.90;99.30
44695;DHT22;32845;59.422;17.930;2023-07-20T12:27:27;22.20;96.60
44695;DHT22;32845;59.422;17.930;2023-07-20T12:31:58;22.50;97.60
44695;DHT22;32845;59.422;17.930;2023-07-20T12:36:29;22.60;97.00
44695;DHT22;32845;59.422;17.930;2023-07-20T12:41:03;22.60;93.90
44695;DHT22;32845;59.422;17.930;2023-07-20T12:45:34;22.30;94.30
44695;DHT22;32845;59.422;17.930;2023-07-20T12:50:04;21.90;96.30
44695;DHT22;32845;59.422;17.930;2023-07-20T12:54:36;21.60;96.80
44695;DHT22;32845;59.422;17.930;2023-07-20T12:59:07;21.40;97.70
44695;DHT22;32845;59.422;17.930;2023-07-20T13:03:37;21.30;97.60
44695;DHT22;32845;59.422;17.930;2023-07-20T13:08:08;21.30;97.70
44695;DHT22;32845;59.422;17.930;2023-07-20T13:12:39;21.20;97.10
44695;DHT22;32845;59.422;17.930;2023-07-20T13:17:09;20.90;97.70
44695;DHT22;32845;59.422;17.930;2023-07-20T13:21:40;20.90;98.50
44695;DHT22;32845;59.422;17.930;2023-07-20T13:26:11;20.70;98.80
44695;DHT22;32845;59.422;17.930;2023-07-20T13:30:42;20.60;99.00
44695;DHT22;32845;59.422;17.930;2023-07-20T13:35:15;20.70;99.90
44695;DHT22;32845;59.422;17.930;2023-07-20T13:39:45;20.80;99.90
44695;DHT22;32845;59.422;17.930;2023-07-20T13:44:16;20.90;99.90
44695;DHT22;32845;59.422;17.930;2023-07-20T13:48:47;21.00;99.90
44695;DHT22;32845;59.422;17.930;2023-07-20T13:53:17;21.10;99.90
44695;DHT22;32845;59.422;17.930;2023-07-20T13:57:48;21.00;99.00
44695;DHT22;32845;59.422;17.930;2023-07-20T14:02:18;20.80;99.20
44695;DHT22;32845;59.422;17.930;2023-07-20T14:06:49;20.70;99.50
44695;DHT22;32845;59.422;17.930;2023-07-20T14:11:20;20.60;99.40
44695;DHT22;32845;59.422;17.930;2023-07-20T14:15:51;20.50;99.00
44695;DHT22;32845;59.422;17.930;2023-07-20T14:20:21;20.50;99.10
44695;DHT22;32845;59.422;17.930;2023-07-20T14:24:52;20.40;99.20
44695;DHT22;32845;59.422;17.930;2023-07-20T14:29:23;20.40;98.90
44695;DHT22;32845;59.422;17.930;2023-07-20T14:33:53;20.30;98.20
44695;DHT22;32845;59.422;17.930;2023-07-20T14:38:24;20.20;98.20
44695;DHT22;32845;59.422;17.930;2023-07-20T14:42:55;20.10;98.70
44695;DHT22;32845;59.422;17.930;2023-07-20T14:47:26;20.10;99.90
44695;DHT22;32845;59.422;17.930;2023-07-20T14:51:57;20.10;99.90
44695;DHT22;32845;59.422;17.930;2023-07-20T14:56:27;20.00;99.90
44695;DHT22;32845;59.422;17.930;2023-07-20T15:00:58;19.90;99.60
44695;DHT22;32845;59.422;17.930;2023-07-20T15:05:28;19.90;99.90
44695;DHT22;32845;59.422;17.930;2023-07-20T15:09:59;20.10;99.90
44695;DHT22;32845;59.422;17.930;2023-07-20T15:14:30;20.30;99.90
44695;DHT22;32845;59.422;17.930;2023-07-20T15:19:00;20.40;99.10
44695;DHT22;32845;59.422;17.930;2023-07-20T15:23:31;20.30;98.40
44695;DHT22;32845;59.422;17.930;2023-07-20T15:28:02;20.30;96.80
44695;DHT22;32845;59.422;17.930;2023-07-20T15:32:32;20.20;96.70
44695;DHT22;32845;59.422;17.930;2023-07-20T15:37:03;19.90;97.20
44695;DHT22;32845;59.422;17.930;2023-07-20T15:41:35;19.80;97.20
44695;DHT22;32845;59.422;17.930;2023-07-20T15:51:06;19.50;96.70
44695;DHT22;32845;59.422;17.930;2023-07-20T15:55:37;19.50;97.90
44695;DHT22;32845;59.422;17.930;2023-07-20T16:00:07;19.60;97.40
44695;DHT22;32845;59.422;17.930;2023-07-20T16:04:39;19.70;98.00
44695;DHT22;32845;59.422;17.930;2023-07-20T16:09:10;19.90;98.10
44695;DHT22;32845;59.422;17.930;2023-07-20T16:13:41;19.90;97.30
44695;DHT22;32845;59.422;17.930;2023-07-20T16:18:13;19.90;96.90
44695;DHT22;32845;59.422;17.930;2023-07-20T16:22:44;19.90;97.30
44695;DHT22;32845;59.422;17.930;2023-07-20T16:27:14;19.90;97.30
44695;DHT22;32845;59.422;17.930;2023-07-20T16:31:45;19.90;97.40
44695;DHT22;32845;59.422;17.930;2023-07-20T16:36:16;19.80;97.50
44695;DHT22;32845;59.422;17.930;2023-07-20T16:40:47;19.70;97.70
44695;DHT22;32845;59.422;17.930;2023-07-20T16:45:17;19.70;97.80
44695;DHT22;32845;59.422;17.930;2023-07-20T16:49:48;19.70;98.00
44695;DHT22;32845;59.422;17.930;2023-07-20T16:54:19;19.60;98.00
44695;DHT22;32845;59.422;17.930;2023-07-20T16:58:49;19.60;98.00
44695;DHT22;32845;59.422;17.930;2023-07-20T17:03:20;19.60;98.20
44695;DHT22;32845;59.422;17.930;2023-07-20T17:07:50;19.60;97.80
44695;DHT22;32845;59.422;17.930;2023-07-20T17:12:25;19.60;98.30
44695;DHT22;32845;59.422;17.930;2023-07-20T17:16:56;19.50;98.20
44695;DHT22;32845;59.422;17.930;2023-07-20T17:21:26;19.40;98.20
44695;DHT22;32845;59.422;17.930;2023-07-20T17:25:57;19.20;98.70
44695;DHT22;32845;59.422;17.930;2023-07-20T17:30:28;19.10;98.70
44695;DHT22;32845;59.422;17.930;2023-07-20T17:34:59;19.10;98.90
44695;DHT22;32845;59.422;17.930;2023-07-20T17:39:32;19.00;99.30
44695;DHT22;32845;59.422;17.930;2023-07-20T17:44:05;18.80;99.30
44695;DHT22;32845;59.422;17.930;2023-07-20T17:48:36;18.50;99.90
44695;DHT22;32845;59.422;17.930;2023-07-20T17:53:06;18.10;99.90
44695;DHT22;32845;59.422;17.930;2023-07-20T17:57:37;17.70;99.90
44695;DHT22;32845;59.422;17.930;2023-07-20T18:02:07;17.40;99.90
44695;DHT22;32845;59.422;17.930;2023-07-20T18:06:38;17.10;99.90
44695;DHT22;32845;59.422;17.930;2023-07-20T18:11:09;16.90;99.90
44695;DHT22;32845;59.422;17.930;2023-07-20T18:15:40;16.90;99.90
44695;DHT22;32845;59.422;17.930;2023-07-20T18:20:10;16.90;99.90
44695;DHT22;32845;59.422;17.930;2023-07-20T18:24:41;16.90;99.90
44695;DHT22;32845;59.422;17.930;2023-07-20T18:29:12;16.80;99.90
44695;DHT22;32845;59.422;17.930;2023-07-20T18:33:42;16.70;99.90
44695;DHT22;32845;59.422;17.930;2023-07-20T18:38:13;16.60;99.90
44695;DHT22;32845;59.422;17.930;2023-07-20T18:42:43;16.60;99.90
44695;DHT22;32845;59.422;17.930;2023-07-20T18:47:14;16.50;99.90
44695;DHT22;32845;59.422;17.930;2023-07-20T18:51:45;16.40;99.90
44695;DHT22;32845;59.422;17.930;2023-07-20T18:56:15;16.20;99.90
44695;DHT22;32845;59.422;17.930;2023-07-20T19:00:46;16.10;99.90
44695;DHT22;32845;59.422;17.930;2023-07-20T19:05:16;16.00;99.90
44695;DHT22;32845;59.422;17.930;2023-07-20T19:09:47;15.90;99.90
44695;DHT22;32845;59.422;17.930;2023-07-20T19:14:19;15.80;99.90
44695;DHT22;32845;59.422;17.930;2023-07-20T19:18:49;15.70;99.90
44695;DHT22;32845;59.422;17.930;2023-07-20T19:23:20;15.60;99.90
44695;DHT22;32845;59.422;17.930;2023-07-20T19:27:51;15.50;99.90
44695;DHT22;32845;59.422;17.930;2023-07-20T19:32:21;15.40;99.90
44695;DHT22;32845;59.422;17.930;2023-07-20T19:36:52;15.30;99.90
44695;DHT22;32845;59.422;17.930;2023-07-20T19:41:23;15.20;99.90
44695;DHT22;32845;59.422;17.930;2023-07-20T19:45:53;15.10;99.90
44695;DHT22;32845;59.422;17.930;2023-07-20T19:50:24;15.00;99.90
44695;DHT22;32845;59.422;17.930;2023-07-20T19:54:56;14.90;99.90
44695;DHT22;32845;59.422;17.930;2023-07-20T19:59:26;14.80;99.90
44695;DHT22;32845;59.422;17.930;2023-07-20T20:03:57;14.70;99.90
44695;DHT22;32845;59.422;17.930;2023-07-20T20:08:28;14.60;99.90
44695;DHT22;32845;59.422;17.930;2023-07-20T20:13:04;14.60;99.90
44695;DHT22;32845;59.422;17.930;2023-07-20T20:17:35;14.50;99.90
44695;DHT22;32845;59.422;17.930;2023-07-20T20:22:05;14.40;99.90
44695;DHT22;32845;59.422;17.930;2023-07-20T20:26:36;14.30;99.90
44695;DHT22;32845;59.422;17.930;2023-07-20T20:31:07;14.20;99.90
44695;DHT22;32845;59.422;17.930;2023-07-20T20:35:38;14.10;99.90
44695;DHT22;32845;59.422;17.930;2023-07-20T20:40:11;14.00;99.90
44695;DHT22;32845;59.422;17.930;2023-07-20T20:44:42;14.00;99.90
44695;DHT22;32845;59.422;17.930;2023-07-20T20:49:13;13.90;99.90
44695;DHT22;32845;59.422;17.930;2023-07-20T20:53:43;13.80;99.90
44695;DHT22;32845;59.422;17.930;2023-07-20T20:58:14;13.80;99.90
44695;DHT22;32845;59.422;17.930;2023-07-20T21:02:44;13.70;99.90
44695;DHT22;32845;59.422;17.930;2023-07-20T21:07:15;13.70;99.90
44695;DHT22;32845;59.422;17.930;2023-07-20T21:11:46;13.70;99.90
44695;DHT22;32845;59.422;17.930;2023-07-20T21:16:16;13.60;99.90
44695;DHT22;32845;59.422;17.930;2023-07-20T21:20:47;13.60;99.90
44695;DHT22;32845;59.422;17.930;2023-07-20T21:25:18;13.60;99.90
44695;DHT22;32845;59.422;17.930;2023-07-20T21:29:48;13.50;99.90
44695;DHT22;32845;59.422;17.930;2023-07-20T21:34:19;13.50;99.90
44695;DHT22;32845;59.422;17.930;2023-07-20T21:38:50;13.40;99.90
44695;DHT22;32845;59.422;17.930;2023-07-20T21:43:20;13.40;99.90
44695;DHT22;32845;59.422;17.930;2023-07-20T21:47:51;13.40;99.90
44695;DHT22;32845;59.422;17.930;2023-07-20T21:52:22;13.40;99.90
44695;DHT22;32845;59.422;17.930;2023-07-20T21:56:52;13.50;99.90
44695;DHT22;32845;59.422;17.930;2023-07-20T22:01:23;13.50;99.90
44695;DHT22;32845;59.422;17.930;2023-07-20T22:05:54;13.50;99.90
44695;DHT22;32845;59.422;17.930;2023-07-20T22:10:31;13.50;99.90
44695;DHT22;32845;59.422;17.930;2023-07-20T22:15:01;13.50;99.90
44695;DHT22;32845;59.422;17.930;2023-07-20T22:19:34;13.50;99.90
44695;DHT22;32845;59.422;17.930;2023-07-20T22:24:05;13.50;99.90
44695;DHT22;32845;59.422;17.930;2023-07-20T22:28:36;13.60;99.90
44695;DHT22;32845;59.422;17.930;2023-07-20T22:33:07;13.60;99.90
44695;DHT22;32845;59.422;17.930;2023-07-20T22:37:38;13.70;99.90
44695;DHT22;32845;59.422;17.930;2023-07-20T22:42:09;13.70;99.90
44695;DHT22;32845;59.422;17.930;2023-07-20T22:46:40;13.70;99.90
44695;DHT22;32845;59.422;17.930;2023-07-20T22:51:10;13.80;99.90
44695;DHT22;32845;59.422;17.930;2023-07-20T22:55:45;13.80;99.90
44695;DHT22;32845;59.422;17.930;2023-07-20T23:00:17;13.80;99.90
44695;DHT22;32845;59.422;17.930;2023-07-20T23:04:54;13.70;99.90
44695;DHT22;32845;59.422;17.930;2023-07-20T23:09:25;13.70;99.90
44695;DHT22;32845;59.422;17.930;2023-07-20T23:13:55;13.60;99.90
44695;DHT22;32845;59.422;17.930;2023-07-20T23:18:26;13.60;99.90
44695;DHT22;32845;59.422;17.930;2023-07-20T23:22:57;13.50;99.90
44695;DHT22;32845;59.422;17.930;2023-07-20T23:27:27;13.50;99.90
44695;DHT22;32845;59.422;17.930;2023-07-20T23:31:58;13.40;99.90
44695;DHT22;32845;59.422;17.930;2023-07-20T23:36:28;13.40;99.90
44695;DHT22;32845;59.422;17.930;2023-07-20T23:40:59;13.30;99.90
44695;DHT22;32845;59.422;17.930;2023-07-20T23:45:30;13.30;99.90
44695;DHT22;32845;59.422;17.930;2023-07-20T23:50:00;13.20;99.90
44695;DHT22;32845;59.422;17.930;2023-07-20T23:54:31;13.20;99.90
44695;DHT22;32845;59.422;17.930;2023-07-20T23:59:02;13.10;99.90
